Time;durP1;ratioP1;P1;durP2;ratioP2;P2;SDS_P1;SDS_P2;PMS_P1;PMS_P2;Temp;Humidity;BMP_temperature;BMP_pressure;BME280_temperature;BME280_humidity;BME280_pressure;Samples;Min_cycle;Max_cycle;Signal;HPM_P1;HPM_P2
2022/02/08 00:00:07;;;;;;;;;;;;;;;3.85;74.92;101760.66;5013126;28;20470;-86
2022/02/08 00:02:36;;;;;;;;;;;;;;;3.77;75.02;101756.91;5029780;28;19941;-86
2022/02/08 00:05:06;;;;;;;;;;;;;;;3.72;75.16;101759.31;5017186;28;20191;-86
2022/02/08 00:07:33;;;;;;;;;;;;;;;3.66;75.49;101759.09;5010912;28;19987;-86
2022/02/08 00:10:00;;;;;;;;;;;;;;;3.62;75.80;101758.13;5016042;28;19983;-87
2022/02/08 00:12:26;;;;;;;;;;;;;;;3.63;75.93;101756.41;4989603;28;19999;-86
2022/02/08 00:14:54;;;;;;;;;;;;;;;3.65;76.24;101754.75;5010559;28;20044;-86
2022/02/08 00:17:21;;;;;;;;;;;;;;;3.66;76.29;101750.47;5011024;28;20406;-86
2022/02/08 00:19:47;;;;;;;;;;;;;;;3.69;76.66;101742.78;5008722;28;19933;-87
2022/02/08 00:22:14;;;;;;;;;;;;;;;3.69;77.24;101747.97;5010259;28;20016;-85
2022/02/08 00:24:40;;;;;;;;;;;;;;;3.71;77.66;101742.03;4994746;28;20509;-86
2022/02/08 00:27:07;;;;;;;;;;;;;;;3.70;78.32;101740.25;4999990;28;19983;-86
2022/02/08 00:29:34;;;;;;;;;;;;;;;3.72;78.93;101736.03;5009336;28;19933;-86
2022/02/08 00:32:00;;;;;;;;;;;;;;;3.76;79.25;101735.31;5018169;28;19980;-86
2022/02/08 00:34:27;;;;;;;;;;;;;;;3.79;79.67;101735.44;5018564;28;20014;-86
2022/02/08 00:36:53;;;;;;;;;;;;;;;3.76;80.13;101726.66;5024862;28;19925;-87
2022/02/08 00:39:23;;;;;;;;;;;;;;;3.75;80.16;101725.75;5020844;28;20322;-86
2022/02/08 00:41:49;;;;;;;;;;;;;;;3.74;80.52;101726.63;5020454;28;19933;-85
2022/02/08 00:44:20;;;;;;;;;;;;;;;3.75;80.65;101735.25;5031710;28;20063;-86
2022/02/08 00:46:52;;;;;;;;;;;;;;;3.76;80.79;101737.91;5001746;28;19934;-86
2022/02/08 00:49:18;;;;;;;;;;;;;;;3.80;80.81;101733.72;5005014;28;20384;-87
2022/02/08 00:51:51;;;;;;;;;;;;;;;3.79;80.84;101731.94;5015836;28;19936;-87
2022/02/08 00:54:18;;;;;;;;;;;;;;;3.83;80.82;101715.69;5011170;28;19968;-85
2022/02/08 00:56:44;;;;;;;;;;;;;;;3.82;80.94;101726.91;5030295;28;19925;-85
2022/02/08 00:59:11;;;;;;;;;;;;;;;3.81;81.17;101723.41;5003633;28;19976;-85
2022/02/08 01:01:38;;;;;;;;;;;;;;;3.78;81.39;101723.31;5017607;28;19929;-86
2022/02/08 01:04:09;;;;;;;;;;;;;;;3.79;81.30;101725.06;5009589;28;19925;-86
2022/02/08 01:06:37;;;;;;;;;;;;;;;3.78;81.39;101715.53;5016438;28;19933;-86
2022/02/08 01:09:13;;;;;;;;;;;;;;;3.72;81.70;101729.97;5030043;28;19939;-86
2022/02/08 01:11:41;;;;;;;;;;;;;;;3.69;82.18;101724.66;5016778;28;20350;-86
2022/02/08 01:14:08;;;;;;;;;;;;;;;3.72;81.88;101723.06;5023749;28;19929;-87
2022/02/08 01:16:34;;;;;;;;;;;;;;;3.78;81.41;101725.88;5031600;28;19955;-86
2022/02/08 01:19:02;;;;;;;;;;;;;;;3.81;81.37;101720.81;5038223;28;19924;-87
2022/02/08 01:21:30;;;;;;;;;;;;;;;3.83;81.43;101714.81;5038739;28;20013;-86
2022/02/08 01:23:57;;;;;;;;;;;;;;;3.83;81.34;101707.03;5015697;28;19995;-86
2022/02/08 01:26:23;;;;;;;;;;;;;;;3.85;81.51;101708.00;5021294;28;19936;-87
2022/02/08 01:28:55;;;;;;;;;;;;;;;3.83;81.57;101692.38;5030830;28;22795;-86
2022/02/08 01:31:23;;;;;;;;;;;;;;;3.91;81.35;101692.63;5018192;28;19933;-87
2022/02/08 01:36:38;;;;;;;;;;;;;;;4.02;80.84;101695.63;5051874;28;21152;-86
2022/02/08 01:39:13;;;;;;;;;;;;;;;4.03;81.01;101698.28;5040394;28;19975;-86
2022/02/08 01:41:59;;;;;;;;;;;;;;;4.03;81.14;101702.53;5025451;28;19982;-85
2022/02/08 01:44:31;;;;;;;;;;;;;;;4.06;81.15;101684.53;5025512;28;19933;-86
2022/02/08 01:47:11;;;;;;;;;;;;;;;4.13;81.15;101686.50;5024599;28;20042;-86
2022/02/08 01:49:55;;;;;;;;;;;;;;;4.20;81.10;101672.03;5037872;28;19933;-86
2022/02/08 01:52:21;;;;;;;;;;;;;;;4.27;80.98;101671.41;5035536;28;19935;-85
2022/02/08 01:54:48;;;;;;;;;;;;;;;4.33;80.89;101681.09;5034532;28;19994;-86
2022/02/08 01:57:14;;;;;;;;;;;;;;;4.37;80.91;101677.78;5036034;28;19928;-86
2022/02/08 01:59:41;;;;;;;;;;;;;;;4.41;80.94;101674.47;5036102;28;20011;-86
2022/02/08 02:02:07;;;;;;;;;;;;;;;4.45;81.03;101672.00;5019622;28;19936;-86
2022/02/08 02:04:34;;;;;;;;;;;;;;;4.50;81.19;101672.19;5031652;28;20023;-86
2022/02/08 02:14:04;;;;;;;;;;;;;;;4.49;82.77;101648.81;4707933;28;21577;-86
2022/02/08 02:16:43;;;;;;;;;;;;;;;4.50;83.35;101663.50;5018076;28;19925;-86
2022/02/08 02:19:10;;;;;;;;;;;;;;;4.53;83.57;101656.72;5012128;28;20366;-87
2022/02/08 02:21:36;;;;;;;;;;;;;;;4.56;83.88;101655.94;4993488;28;20470;-86
2022/02/08 02:24:03;;;;;;;;;;;;;;;4.67;83.38;101658.84;5016512;28;19935;-87
2022/02/08 02:26:30;;;;;;;;;;;;;;;4.68;83.67;101656.31;5026554;28;19944;-87
2022/02/08 02:28:56;;;;;;;;;;;;;;;4.71;83.51;101658.13;5016577;28;19933;-86
2022/02/08 02:31:23;;;;;;;;;;;;;;;4.73;83.66;101659.06;4996307;28;20316;-86
2022/02/08 02:33:50;;;;;;;;;;;;;;;4.74;84.13;101655.63;5014461;28;20447;-87
2022/02/08 02:36:16;;;;;;;;;;;;;;;4.74;84.14;101653.03;5012330;28;19933;-86
2022/02/08 02:38:43;;;;;;;;;;;;;;;4.76;84.18;101657.44;5012152;28;20083;-86
2022/02/08 02:41:09;;;;;;;;;;;;;;;4.78;84.66;101634.13;5015649;28;20024;-86
2022/02/08 02:43:36;;;;;;;;;;;;;;;4.76;85.17;101654.84;5001427;28;19957;-86
2022/02/08 02:46:03;;;;;;;;;;;;;;;4.74;85.66;101653.91;5007378;28;20453;-88
2022/02/08 02:48:30;;;;;;;;;;;;;;;4.75;86.75;101647.03;5028839;28;19929;-86
2022/02/08 02:50:56;;;;;;;;;;;;;;;4.72;87.57;101654.69;5011484;28;19987;-87
2022/02/08 02:53:25;;;;;;;;;;;;;;;4.70;87.97;101653.78;5008576;28;19925;-87
2022/02/08 02:55:52;;;;;;;;;;;;;;;4.64;88.83;101654.44;5016347;28;19944;-86
2022/02/08 02:58:21;;;;;;;;;;;;;;;4.62;89.19;101646.63;4995236;28;20403;-86
2022/02/08 03:01:02;;;;;;;;;;;;;;;4.63;89.96;101643.19;5014654;28;20438;-86
2022/02/08 03:03:42;;;;;;;;;;;;;;;4.60;91.02;101650.00;4995485;28;19933;-86
2022/02/08 03:17:32;;;;;;;;;;;;;;;4.59;91.70;101632.69;5003711;28;19949;-86
2022/02/08 03:17:41;;;;;;;;;;;;;;;4.52;95.67;101649.75;5033236;28;19927;-86
2022/02/08 03:20:11;;;;;;;;;;;;;;;4.50;95.93;101629.78;5023351;28;19935;-86
2022/02/08 03:22:37;;;;;;;;;;;;;;;4.49;96.26;101651.41;5032186;28;19972;-87
2022/02/08 03:25:05;;;;;;;;;;;;;;;4.49;96.81;101657.44;5031643;28;19936;-86
2022/02/08 03:27:31;;;;;;;;;;;;;;;4.48;97.34;101645.31;5032822;28;19933;-86
2022/02/08 03:29:58;;;;;;;;;;;;;;;4.50;97.53;101642.75;5033887;28;19932;-86
2022/02/08 03:32:24;;;;;;;;;;;;;;;4.51;97.99;101642.84;5023295;28;19933;-86
2022/02/08 03:34:51;;;;;;;;;;;;;;;4.51;98.49;101650.59;5017323;28;19951;-85
2022/02/08 03:37:19;;;;;;;;;;;;;;;4.49;98.71;101635.84;5035648;28;19940;-86
2022/02/08 03:39:55;;;;;;;;;;;;;;;4.52;99.22;101636.78;5040354;28;20019;-86
2022/02/08 03:42:28;;;;;;;;;;;;;;;4.50;99.70;101633.28;5022583;28;20003;-86
2022/02/08 03:44:57;;;;;;;;;;;;;;;4.54;99.76;101644.66;5035164;28;19954;-86
2022/02/08 03:47:24;;;;;;;;;;;;;;;4.54;99.85;101640.31;5036707;28;19933;-86
2022/02/08 03:49:51;;;;;;;;;;;;;;;4.57;100.00;101644.72;5034126;28;19976;-85
2022/02/08 03:52:18;;;;;;;;;;;;;;;4.60;100.00;101645.72;5020341;28;19929;-86
2022/02/08 03:54:45;;;;;;;;;;;;;;;4.59;100.00;101649.13;5049565;28;19987;-86
2022/02/08 03:57:11;;;;;;;;;;;;;;;4.60;100.00;101647.41;5038544;28;19931;-86
2022/02/08 03:59:39;;;;;;;;;;;;;;;4.61;100.00;101642.25;5048844;28;19929;-86
2022/02/08 04:04:55;;;;;;;;;;;;;;;4.65;100.00;101640.66;5035073;28;20007;-86
2022/02/08 04:07:25;;;;;;;;;;;;;;;4.67;100.00;101643.28;5055203;28;19933;-85
2022/02/08 04:09:59;;;;;;;;;;;;;;;4.65;100.00;101643.25;5031223;28;19935;-86
2022/02/08 04:12:32;;;;;;;;;;;;;;;4.66;100.00;101634.63;5033982;28;19933;-87
2022/02/08 04:17:56;;;;;;;;;;;;;;;4.71;100.00;101642.56;5039324;28;19951;-86
2022/02/08 04:34:39;;;;;;;;;;;;;;;4.80;100.00;101616.91;4980626;28;19924;-86
2022/02/08 04:37:45;;;;;;;;;;;;;;;4.73;100.00;101618.44;5055478;28;19932;-86
2022/02/08 04:40:34;;;;;;;;;;;;;;;4.71;100.00;101617.50;5025601;28;19932;-87
2022/02/08 04:45:50;;;;;;;;;;;;;;;4.64;100.00;101613.84;5042431;28;19933;-85
2022/02/08 04:48:29;;;;;;;;;;;;;;;4.64;100.00;101612.94;5049099;28;19939;-86
2022/02/08 04:51:07;;;;;;;;;;;;;;;4.62;100.00;101615.50;5025152;28;19956;-86
2022/02/08 04:53:39;;;;;;;;;;;;;;;4.64;100.00;101620.72;5020050;28;19934;-85
2022/02/08 04:56:14;;;;;;;;;;;;;;;4.61;100.00;101615.47;5024321;28;20001;-86
2022/02/08 04:58:47;;;;;;;;;;;;;;;4.60;100.00;101604.22;5026532;28;19935;-85
2022/02/08 05:01:19;;;;;;;;;;;;;;;4.61;100.00;101612.88;5034235;28;19939;-86
2022/02/08 05:42:43;;;;;;;5.00;3.25;;;;;;;4.82;100.00;101589.28;5001852;28;20870;-87
2022/02/08 05:48:04;;;;;;;5.90;3.63;;;;;;;4.83;100.00;101574.63;5028462;28;20577;-87
2022/02/08 05:50:41;;;;;;;3.47;3.17;;;;;;;4.83;100.00;101559.06;5056383;28;20123;-86
2022/02/08 05:53:29;;;;;;;4.10;3.20;;;;;;;4.86;100.00;101551.34;5034227;28;20126;-86
2022/02/08 05:56:02;;;;;;;4.18;3.78;;;;;;;4.86;100.00;101566.91;5074409;28;20037;-86
2022/02/08 05:58:29;;;;;;;4.30;3.30;;;;;;;4.87;100.00;101568.69;5052273;28;20377;-86
2022/02/08 06:01:02;;;;;;;4.78;3.83;;;;;;;4.89;100.00;101565.28;5039699;28;20070;-88
2022/02/08 06:03:31;;;;;;;4.05;3.75;;;;;;;4.93;100.00;101567.13;5034292;28;20052;-87
2022/02/08 06:06:07;;;;;;;4.25;3.85;;;;;;;4.99;100.00;101560.38;5049946;28;20056;-87
2022/02/08 06:08:38;;;;;;;5.20;4.07;;;;;;;5.05;100.00;101563.16;5031692;28;20045;-86
2022/02/08 06:11:14;;;;;;;4.80;4.10;;;;;;;5.09;100.00;101576.22;5028564;28;20095;-86
2022/02/08 06:13:51;;;;;;;6.30;4.45;;;;;;;5.17;100.00;101573.84;5034092;28;20071;-87
2022/02/08 06:16:19;;;;;;;4.95;4.47;;;;;;;5.23;100.00;101557.59;5049390;28;20112;-85
2022/02/08 06:18:49;;;;;;;6.10;4.43;;;;;;;5.28;100.00;101556.00;5054392;28;20055;-86
2022/02/08 06:21:20;;;;;;;8.43;5.07;;;;;;;5.30;100.00;101551.72;5037627;28;20049;-87
2022/02/08 06:23:49;;;;;;;6.78;5.00;;;;;;;5.34;100.00;101550.97;5054668;28;20114;-86
2022/02/08 06:26:18;;;;;;;5.95;5.35;;;;;;;5.39;100.00;101556.28;5041778;28;20044;-86
2022/02/08 06:28:53;;;;;;;8.20;5.60;;;;;;;5.43;100.00;101561.59;5041381;28;20041;-86
2022/02/08 06:31:20;;;;;;;6.80;5.28;;;;;;;5.46;100.00;101550.41;5044202;28;20094;-86
2022/02/08 06:33:50;;;;;;;6.40;5.43;;;;;;;5.51;100.00;101556.59;5035008;28;20055;-84
2022/02/08 06:36:18;;;;;;;8.80;7.47;;;;;;;5.56;100.00;101559.34;5044781;28;20736;-87
2022/02/08 06:38:59;;;;;;;8.82;6.78;;;;;;;5.54;100.00;101572.28;5054485;28;20790;-86
2022/02/08 06:41:28;;;;;;;8.43;6.93;;;;;;;5.57;100.00;101569.75;5042921;28;20045;-84
2022/02/08 06:43:55;;;;;;;8.48;6.38;;;;;;;5.59;100.00;101569.78;5013383;28;20044;-87
2022/02/08 06:46:22;;;;;;;9.93;7.28;;;;;;;5.62;100.00;101567.28;5041985;28;20392;-86
2022/02/08 06:48:49;;;;;;;11.20;7.50;;;;;;;5.63;100.00;101575.13;5028356;28;20160;-87
2022/02/08 06:51:20;;;;;;;12.18;8.75;;;;;;;5.66;100.00;101573.41;5043770;28;20910;-87
2022/02/08 06:53:49;;;;;;;10.70;8.15;;;;;;;5.70;100.00;101573.56;5035564;28;20080;-84
2022/02/08 06:56:16;;;;;;;11.00;8.52;;;;;;;5.72;100.00;101568.41;5030054;28;20048;-86
2022/02/08 06:58:56;;;;;;;12.25;9.48;;;;;;;5.72;100.00;101581.38;5050917;28;20067;-88
2022/02/08 07:01:27;;;;;;;14.13;9.18;;;;;;;5.76;100.00;101578.91;5029955;28;20048;-87
2022/02/08 07:03:56;;;;;;;16.17;9.40;;;;;;;5.80;100.00;101588.53;5050620;28;20048;-87
2022/02/08 07:06:24;;;;;;;15.88;10.80;;;;;;;5.83;100.00;101584.25;5034597;28;20067;-84
2022/02/08 07:08:53;;;;;;;14.55;9.68;;;;;;;5.85;100.00;101580.84;5042525;28;20059;-86
2022/02/08 07:11:25;;;;;;;16.10;11.05;;;;;;;5.89;100.00;101585.31;5039357;28;20080;-88
2022/02/08 07:13:53;;;;;;;17.90;10.20;;;;;;;5.90;100.00;101589.66;5036280;28;20087;-89
2022/02/08 07:16:21;;;;;;;14.63;11.40;;;;;;;5.95;100.00;101588.03;5041756;28;20052;-85
2022/02/08 07:18:50;;;;;;;15.68;10.55;;;;;;;5.98;100.00;101597.66;5038241;28;20063;-88
2022/02/08 07:21:17;;;;;;;18.77;13.40;;;;;;;5.97;100.00;101603.66;5002646;28;20068;-86
2022/02/08 07:23:47;;;;;;;17.98;11.07;;;;;;;6.02;100.00;101606.44;5038699;28;20556;-85
2022/02/08 07:26:16;;;;;;;16.17;12.27;;;;;;;6.04;100.00;101604.75;5041461;28;20143;-87
2022/02/08 07:28:44;;;;;;;17.00;11.90;;;;;;;6.03;100.00;101616.00;5018480;28;20060;-84
2022/02/08 07:31:16;;;;;;;21.70;11.85;;;;;;;6.04;100.00;101622.97;5021793;28;20037;-87
2022/02/08 07:33:50;;;;;;;19.50;11.88;;;;;;;6.08;100.00;101614.38;5033196;28;20044;-86
2022/02/08 07:36:26;;;;;;;20.20;12.05;;;;;;;6.10;100.00;101600.59;5025843;28;20040;-87
2022/02/08 07:38:55;;;;;;;20.10;12.35;;;;;;;6.11;100.00;101604.94;5017499;28;21590;-87
2022/02/08 07:41:39;;;;;;;19.10;12.68;;;;;;;6.18;100.00;101603.38;5013895;28;20174;-86
2022/02/08 07:44:12;;;;;;;;;;;;;;;6.20;100.00;101601.69;5018405;28;20478;-86
2022/02/08 07:46:39;;;;;;;21.48;12.68;;;;;;;6.24;100.00;101607.84;5012838;28;19951;-87
2022/02/08 07:49:06;;;;;;;23.33;13.10;;;;;;;6.28;100.00;101601.88;5032274;28;20158;-87
2022/02/08 07:51:38;;;;;;;20.02;12.93;;;;;;;6.30;100.00;101600.19;5015530;28;20064;-87
2022/02/08 07:54:06;;;;;;;19.27;12.35;;;;;;;6.36;100.00;101594.25;5023521;28;20056;-87
2022/02/08 07:56:34;;;;;;;26.25;15.02;;;;;;;6.38;100.00;101587.38;5032963;28;20055;-89
2022/02/08 07:59:01;;;;;;;22.30;13.15;;;;;;;6.44;100.00;101566.69;5010669;28;20139;-86
2022/02/08 08:01:30;;;;;;;20.20;13.00;;;;;;;6.50;100.00;101573.75;5027625;28;20048;-86
2022/02/08 08:03:58;;;;;;;19.77;13.35;;;;;;;6.57;100.00;101584.34;5028609;28;20052;-87
2022/02/08 08:06:32;;;;;;;21.73;12.75;;;;;;;6.60;100.00;101571.41;5024629;28;20055;-87
2022/02/08 08:08:59;;;;;;;;;;;;;;;6.65;100.00;101574.13;5027623;28;20080;-87
2022/02/08 08:11:35;;;;;;;17.25;11.75;;;;;;;6.71;100.00;101569.03;5026907;28;19944;-86
2022/02/08 08:14:03;;;;;;;21.73;12.55;;;;;;;6.73;100.00;101582.97;5008805;28;20194;-86
2022/02/08 08:16:42;;;;;;;20.15;13.30;;;;;;;6.70;100.00;101579.41;5029577;28;20048;-86
2022/02/08 08:19:23;;;;;;;17.88;11.32;;;;;;;6.73;100.00;101569.94;5041665;28;20052;-87
2022/02/08 08:21:56;;;;;;;21.67;12.27;;;;;;;6.76;100.00;101580.41;5013173;28;20496;-87
2022/02/08 08:24:26;;;;;;;23.83;12.55;;;;;;;6.83;100.00;101560.63;5027722;28;20736;-87
2022/02/08 08:26:57;;;;;;;20.33;12.60;;;;;;;6.95;100.00;101567.81;5020313;28;20155;-86
2022/02/08 08:29:28;;;;;;;20.42;13.40;;;;;;;7.04;100.00;101554.97;5007663;28;20195;-86
2022/02/08 08:31:54;;;;;;;22.67;14.38;;;;;;;7.08;100.00;101535.97;5005685;28;20383;-86
2022/02/08 08:34:22;;;;;;;22.17;13.05;;;;;;;7.11;100.00;101566.38;5022828;28;20092;-87
2022/02/08 08:36:52;;;;;;;19.67;12.20;;;;;;;7.12;100.00;101560.34;5008549;28;20049;-87
2022/02/08 08:39:23;;;;;;;22.50;13.43;;;;;;;7.13;100.00;101562.06;5001584;28;20057;-86
2022/02/08 08:42:04;;;;;;;22.35;12.85;;;;;;;7.20;100.00;101557.88;5011587;28;20044;-87
2022/02/08 08:44:57;;;;;;;20.55;13.45;;;;;;;7.24;100.00;101563.16;5005179;28;20059;-88
2022/02/08 08:50:16;;;;;;;17.75;11.40;;;;;;;7.28;100.00;101569.31;5013113;28;20822;-87
2022/02/08 08:52:54;;;;;;;25.40;12.60;;;;;;;7.36;100.00;101582.50;5006665;28;20176;-87
2022/02/08 08:55:21;;;;;;;17.58;11.25;;;;;;;7.44;100.00;101575.69;5010391;28;20049;-87
2022/02/08 08:57:47;;;;;;;18.52;11.95;;;;;;;7.49;100.00;101565.38;5011656;28;20134;-86
2022/02/08 09:00:15;;;;;;;17.92;11.05;;;;;;;7.53;100.00;101581.06;5022987;28;20041;-87
2022/02/08 09:02:45;;;;;;;18.55;12.60;;;;;;;7.57;100.00;101598.53;5007274;28;20091;-86
2022/02/08 09:05:20;;;;;;;18.38;12.40;;;;;;;7.60;100.00;101597.69;5021752;28;20126;-86
2022/02/08 09:07:49;;;;;;;21.67;13.55;;;;;;;7.61;100.00;101596.84;5029889;28;20053;-87
2022/02/08 09:10:19;;;;;;;23.23;12.43;;;;;;;7.65;100.00;101587.38;5018254;28;20046;-87
2022/02/08 09:13:07;;;;;;;20.60;11.65;;;;;;;7.68;100.00;101582.19;5023097;28;20052;-87
2022/02/08 09:21:27;;;;;;;21.88;11.05;;;;;;;7.73;100.00;101578.84;5022001;28;20037;-87
2022/02/08 09:29:42;;;;;;;22.98;12.00;;;;;;;7.82;100.00;101580.72;4972634;28;20065;-87
2022/02/08 09:32:32;;;;;;;21.48;11.93;;;;;;;7.86;100.00;101571.22;5013599;28;23164;-87
2022/02/08 09:34:59;;;;;;;20.65;11.45;;;;;;;7.93;100.00;101573.97;5012592;28;20056;-86
2022/02/08 09:37:29;;;;;;;21.33;10.68;;;;;;;7.97;100.00;101580.13;5020305;28;20052;-87
2022/02/08 09:40:01;;;;;;;17.70;10.48;;;;;;;8.02;99.99;101580.19;5024987;28;20226;-87
2022/02/08 09:42:28;;;;;;;18.27;10.50;;;;;;;8.04;99.43;101565.44;5020575;28;20273;-86
2022/02/08 09:44:56;;;;;;;16.67;10.25;;;;;;;8.01;99.35;101576.69;5008164;28;20087;-87
2022/02/08 09:47:32;;;;;;;14.85;8.90;;;;;;;8.05;99.03;101560.25;5012478;28;20041;-87
2022/02/08 09:50:08;;;;;;;14.40;10.30;;;;;;;8.07;99.12;101597.66;5022864;28;20492;-87
2022/02/08 09:52:34;;;;;;;19.83;10.90;;;;;;;8.11;98.99;101596.00;5011919;28;20048;-87
2022/02/08 09:55:02;;;;;;;14.95;9.10;;;;;;;8.16;98.83;101591.72;5010653;28;20041;-88
2022/02/08 09:57:30;;;;;;;15.85;9.30;;;;;;;8.18;98.60;101595.22;5029051;28;20048;-87
2022/02/08 09:59:58;;;;;;;17.25;9.07;;;;;;;8.18;98.64;101599.56;5018722;28;20062;-88
2022/02/08 10:02:41;;;;;;;13.98;10.07;;;;;;;8.32;98.40;101587.63;5026423;28;21165;-86
2022/02/08 10:05:21;;;;;;;21.45;9.55;;;;;;;8.50;96.98;101578.34;5032772;28;20048;-86
2022/02/08 10:07:47;;;;;;;16.67;8.73;;;;;;;8.55;96.24;101585.41;5014058;28;20455;-86
2022/02/08 10:10:25;;;;;;;11.05;7.57;;;;;;;8.53;96.24;101581.88;5028000;28;20612;-87
2022/02/08 10:24:21;;;;;;;8.30;6.78;;;;;;;8.52;96.29;101587.94;5037927;28;20143;-87
2022/02/08 10:27:04;;;;;;;14.48;7.35;;;;;;;8.61;95.54;101595.91;5021537;28;20395;-86
2022/02/08 10:29:41;;;;;;;11.82;7.10;;;;;;;8.66;95.55;101587.28;5014998;28;20063;-87
2022/02/08 10:37:36;;;;;;;9.60;8.48;;;;;;;8.71;94.68;101596.94;5032371;28;20036;-87
2022/02/08 10:38:19;;;;;;;11.13;6.93;;;;;;;8.67;95.45;101599.47;5028887;28;20097;-87
2022/02/08 10:40:46;;;;;;;13.25;6.95;;;;;;;8.67;95.65;101594.22;5024486;28;20052;-87
2022/02/08 10:43:16;;;;;;;11.48;6.50;;;;;;;8.72;95.30;101595.19;5029401;28;20064;-86
2022/02/08 10:45:45;;;;;;;10.07;6.28;;;;;;;8.75;95.02;101588.28;5014035;28;20052;-87
2022/02/08 10:48:18;;;;;;;11.10;7.13;;;;;;;8.75;94.91;101606.53;5003411;28;20059;-86
2022/02/08 10:50:51;;;;;;;7.32;6.63;;;;;;;8.75;95.29;101609.16;5027718;28;20040;-86
2022/02/08 10:53:20;;;;;;;9.98;6.28;;;;;;;8.69;95.45;101610.81;5019271;28;20049;-85
2022/02/08 10:55:52;;;;;;;9.40;6.93;;;;;;;8.63;96.01;101601.16;5025476;28;20055;-86
2022/02/08 10:58:28;;;;;;;13.15;6.45;;;;;;;8.61;95.71;101595.03;5027193;28;20094;-86
2022/02/08 11:01:02;;;;;;;9.23;5.90;;;;;;;8.58;95.82;101593.25;5023264;28;20506;-86
2022/02/08 11:03:40;;;;;;;10.77;6.20;;;;;;;8.65;95.63;101591.59;5011676;28;20052;-85
2022/02/08 11:06:25;;;;;;;11.00;6.93;;;;;;;8.66;95.24;101582.94;5023833;28;20187;-86
2022/02/08 11:14:36;;;;;;;7.70;5.22;;;;;;;8.75;95.11;101595.25;5004526;28;20080;-87
2022/02/08 11:17:44;;;;;;;7.80;5.53;;;;;;;8.73;95.27;101597.81;5009324;28;20086;-87
2022/02/08 11:20:26;;;;;;;10.25;6.10;;;;;;;8.76;95.15;101591.75;5023052;28;20049;-86
2022/02/08 11:22:57;;;;;;;10.88;6.03;;;;;;;8.80;95.17;101587.44;5028387;28;20448;-87
2022/02/08 11:25:30;;;;;;;8.85;5.32;;;;;;;8.75;94.57;101590.03;5008118;28;20072;-87
2022/02/08 11:28:28;;;;;;;10.05;6.05;;;;;;;8.73;94.81;101589.97;5027317;28;22600;-87
2022/02/08 11:31:09;;;;;;;11.95;6.53;;;;;;;8.74;95.08;101594.34;5009774;28;20107;-87
2022/02/08 11:40:03;;;;;;;14.32;6.28;;;;;;;8.72;95.83;101603.91;5021025;28;20043;-87
2022/02/08 11:48:30;;;;;;;9.18;5.28;;;;;;;8.76;95.34;101558.72;5015046;28;20068;-87
2022/02/08 11:51:30;;;;;;;11.95;5.47;;;;;;;8.78;95.42;101596.13;5028201;28;20249;-87
2022/02/08 11:59:56;;;;;;;10.43;5.22;;;;;;;8.85;95.34;101589.28;4999133;28;20060;-88
2022/02/08 12:02:53;;;;;;;12.05;5.30;;;;;;;8.88;95.00;101586.72;5028706;28;20052;-87
2022/02/08 12:05:35;;;;;;;11.10;5.93;;;;;;;8.88;94.46;101573.66;5020907;28;20060;-85
2022/02/08 12:08:04;;;;;;;8.07;5.25;;;;;;;8.91;94.75;101571.06;5017308;28;20048;-87
2022/02/08 12:10:37;;;;;;;9.93;4.85;;;;;;;8.96;94.18;101581.59;5025536;28;20068;-88
2022/02/08 12:33:05;;;;;;;12.35;5.32;;;;;;;9.06;93.50;101586.06;4990988;28;20049;-85
2022/02/08 12:35:57;;;;;;;8.35;5.35;;;;;;;9.06;93.92;101580.84;5012956;28;20059;-86
2022/02/08 12:55:54;;;;;;;15.43;5.60;;;;;;;9.17;93.27;101577.50;5010970;28;20040;-86
2022/02/08 12:58:34;;;;;;;11.27;4.97;;;;;;;9.22;92.87;101558.38;5011727;28;20063;-87
2022/02/08 13:01:36;;;;;;;8.35;4.88;;;;;;;9.24;92.53;101556.69;5030496;28;20191;-87
2022/02/08 13:04:17;;;;;;;12.43;4.75;;;;;;;9.25;92.56;101557.53;5029908;28;20044;-88
2022/02/08 14:02:58;;;;;;;10.95;5.82;;;;;;;8.72;100.00;101611.75;5015644;28;20075;-87
2022/02/08 14:05:54;;;;;;;;;;;;;;;8.67;100.00;101607.28;5029908;28;20048;-87
2022/02/08 14:08:33;;;;;;;15.45;7.15;;;;;;;8.65;100.00;101611.63;5017192;28;19932;-87
2022/02/08 14:14:14;;;;;;;13.80;6.75;;;;;;;8.58;100.00;101611.53;4955887;28;20472;-86
2022/02/08 14:17:13;;;;;;;16.10;6.35;;;;;;;8.58;100.00;101608.06;5010937;28;20052;-86
2022/02/08 14:19:41;;;;;;;8.05;5.75;;;;;;;8.56;100.00;101614.97;5015957;28;20068;-85
2022/02/08 14:22:15;;;;;;;11.82;8.15;;;;;;;8.58;100.00;101611.53;5018329;28;20054;-87
2022/02/08 14:30:14;;;;;;;11.95;6.57;;;;;;;8.65;100.00;101607.28;5013835;28;20143;-87
2022/02/08 14:32:48;;;;;;;11.38;6.55;;;;;;;8.66;100.00;101614.25;5009504;28;20053;-86
2022/02/08 14:35:39;;;;;;;;;;;;;;;8.68;100.00;101616.88;5017004;28;20127;-87
2022/02/08 14:49:56;;;;;;;11.25;6.53;;;;;;;8.70;100.00;101603.00;5026052;28;20037;-87
2022/02/08 15:06:36;;;;;;;;;;;;;;;8.70;100.00;101623.00;5022571;28;20045;-87
2022/02/08 15:09:04;;;;;;;9.45;5.82;;;;;;;8.72;100.00;101624.78;5021895;28;19927;-86
2022/02/08 15:11:47;;;;;;;11.50;5.80;;;;;;;8.73;100.00;101625.66;5040418;28;20080;-86
2022/02/08 15:14:15;;;;;;;11.38;6.53;;;;;;;8.73;100.00;101620.44;5019431;28;20052;-86
2022/02/08 15:16:42;;;;;;;5.35;4.85;;;;;;;8.76;100.00;101608.31;5032641;28;20056;-87
2022/02/08 15:19:09;;;;;;;9.38;5.40;;;;;;;8.77;100.00;101627.44;5038113;28;20048;-87
2022/02/08 15:21:37;;;;;;;7.88;5.55;;;;;;;8.76;100.00;101620.47;5034270;28;20472;-86
2022/02/08 15:24:06;;;;;;;6.97;4.85;;;;;;;8.77;100.00;101617.00;5030378;28;20055;-87
2022/02/08 15:26:33;;;;;;;6.85;5.40;;;;;;;8.73;100.00;101626.53;5036578;28;20055;-87
2022/02/08 15:29:03;;;;;;;5.65;5.07;;;;;;;8.73;100.00;101620.44;5018204;28;20052;-87
2022/02/08 15:31:30;;;;;;;10.05;6.00;;;;;;;8.71;100.00;101632.59;5015353;28;20315;-84
2022/02/08 15:33:59;;;;;;;8.10;5.93;;;;;;;8.70;100.00;101623.00;5015704;28;20375;-85
2022/02/08 15:36:25;;;;;;;6.38;5.50;;;;;;;8.69;100.00;101643.00;5031955;28;20633;-86
2022/02/08 15:38:54;;;;;;;6.20;5.60;;;;;;;8.69;100.00;101635.16;5016279;28;20500;-86
2022/02/08 15:41:22;;;;;;;7.72;5.38;;;;;;;8.70;100.00;101636.06;5016400;28;20043;-87
2022/02/08 15:43:50;;;;;;;6.30;5.53;;;;;;;8.71;100.00;101637.81;5026854;28;20503;-87
2022/02/08 15:46:21;;;;;;;7.78;6.15;;;;;;;8.71;100.00;101653.50;5031565;28;20100;-86
2022/02/08 15:48:49;;;;;;;8.07;5.45;;;;;;;8.73;100.00;101643.94;5011842;28;20060;-87
2022/02/08 15:51:20;;;;;;;6.28;5.68;;;;;;;8.71;100.00;101651.75;5031947;28;20119;-87
2022/02/08 15:54:18;;;;;;;9.68;5.13;;;;;;;8.71;100.00;101643.03;5031543;28;20106;-87
2022/02/08 16:07:59;;;;;;;5.88;5.00;;;;;;;8.73;100.00;101636.97;4950400;28;20054;-87
2022/02/08 16:10:31;;;;;;;6.65;4.32;;;;;;;8.73;100.00;101652.63;5000115;28;20055;-86
2022/02/08 16:13:23;;;;;;;8.23;5.45;;;;;;;8.73;100.00;101651.75;5037907;28;20680;-88
2022/02/08 16:16:12;;;;;;;5.35;4.85;;;;;;;8.70;100.00;101660.44;5019069;28;20431;-87
2022/02/08 16:18:48;;;;;;;5.22;3.95;;;;;;;8.67;100.00;101669.94;5024599;28;20045;-87
2022/02/08 16:21:36;;;;;;;6.65;4.97;;;;;;;8.69;100.00;101674.31;5028828;28;20120;-86
2022/02/08 16:24:17;;;;;;;5.07;4.57;;;;;;;8.66;100.00;101656.03;5038044;28;20052;-86
2022/02/08 16:27:00;;;;;;;5.53;4.70;;;;;;;8.67;100.00;101673.44;5015630;28;20135;-84
2022/02/08 16:30:03;;;;;;;8.57;4.50;;;;;;;8.68;100.00;101683.03;5011323;28;20080;-86
2022/02/08 16:46:43;;;;;;;5.97;5.45;;;;;;;8.64;100.00;101688.16;5013618;28;20045;-87
2022/02/08 16:49:31;;;;;;;9.25;5.65;;;;;;;8.62;100.00;101688.16;5018018;28;20420;-87
2022/02/08 16:55:28;;;;;;;9.45;6.20;;;;;;;8.56;100.00;101685.44;4971483;28;20433;-86
2022/02/08 16:58:19;;;;;;;;;;;;;;;;;;;;;
2022/02/08 17:01:23;;;;;;;6.88;6.22;;;;;;;8.52;100.00;101701.91;5021585;28;20148;-86
2022/02/08 17:04:23;;;;;;;6.25;5.65;;;;;;;8.52;100.00;101702.78;5020232;28;20055;-86
2022/02/08 17:07:24;;;;;;;6.25;5.75;;;;;;;8.44;100.00;101707.81;5029658;28;20064;-87
2022/02/08 17:10:48;;;;;;;8.40;7.45;;;;;;;8.40;100.00;101695.59;5030313;28;20090;-87